createdAt,value
2018-05-21T00:00:47.118Z,14.20
2018-05-21T00:03:15.700Z,14.20
2018-05-21T00:05:44.047Z,14.20
2018-05-21T00:08:12.468Z,14.10
2018-05-21T00:10:40.589Z,14.10
2018-05-21T00:13:09.476Z,13.90
2018-05-21T00:15:38.700Z,13.80
2018-05-21T00:18:06.741Z,13.80
2018-05-21T00:20:35.631Z,13.70
2018-05-21T00:23:04.495Z,13.70
2018-05-21T00:25:32.760Z,13.70
2018-05-21T00:28:00.864Z,13.70
2018-05-21T00:30:29.605Z,13.70
2018-05-21T00:32:57.749Z,13.70
2018-05-21T00:35:26.466Z,13.60
2018-05-21T00:37:54.837Z,13.60
2018-05-21T00:40:23.483Z,13.60
2018-05-21T00:42:52.062Z,13.60
2018-05-21T00:45:21.313Z,13.50
2018-05-21T00:47:49.572Z,13.60
2018-05-21T00:50:18.063Z,13.50
2018-05-21T00:52:46.805Z,13.50
2018-05-21T00:55:37.058Z,13.50
2018-05-21T00:58:06.061Z,13.50
2018-05-21T01:00:36.354Z,13.50
2018-05-21T01:03:05.200Z,13.40
2018-05-21T01:05:34.464Z,13.50
2018-05-21T01:08:02.689Z,13.40
2018-05-21T01:10:30.746Z,13.40
2018-05-21T01:12:59.004Z,13.40
2018-05-21T01:15:27.083Z,13.40
2018-05-21T01:17:55.287Z,13.40
2018-05-21T01:20:23.818Z,13.30
2018-05-21T01:22:52.017Z,13.30
2018-05-21T01:25:22.238Z,13.30
2018-05-21T01:27:51.232Z,13.30
2018-05-21T01:30:20.488Z,13.30
2018-05-21T01:32:48.513Z,13.20
2018-05-21T01:35:17.406Z,13.30
2018-05-21T01:37:45.566Z,13.20
2018-05-21T01:40:14.698Z,13.20
2018-05-21T01:42:43.087Z,13.20
2018-05-21T01:45:11.422Z,13.20
2018-05-21T01:47:41.124Z,13.10
2018-05-21T01:50:10.444Z,13.10
2018-05-21T01:52:38.648Z,13.00
2018-05-21T01:55:07.275Z,13.00
2018-05-21T01:57:36.111Z,13.00
2018-05-21T02:00:04.778Z,13.00
2018-05-21T02:02:33.527Z,13.00
2018-05-21T02:05:02.837Z,12.90
2018-05-21T02:07:31.283Z,12.90
2018-05-21T02:10:01.040Z,12.90
2018-05-21T02:12:30.694Z,12.90
2018-05-21T02:14:59.260Z,12.90
2018-05-21T02:17:27.435Z,13.00
2018-05-21T02:19:55.831Z,13.00
2018-05-21T02:22:23.902Z,13.00
2018-05-21T02:24:51.965Z,12.90
2018-05-21T02:27:20.081Z,12.90
2018-05-21T02:29:49.115Z,12.80
2018-05-21T02:32:17.229Z,12.80
2018-05-21T02:34:45.431Z,12.80
2018-05-21T02:37:14.669Z,12.70
2018-05-21T02:39:46.133Z,12.70
2018-05-21T02:42:14.205Z,12.70
2018-05-21T02:44:42.721Z,12.70
2018-05-21T02:47:11.367Z,12.70
2018-05-21T02:49:39.449Z,12.20
2018-05-21T02:52:09.218Z,11.70
2018-05-21T02:54:37.622Z,11.70
2018-05-21T02:57:05.988Z,11.80
2018-05-21T02:59:34.594Z,11.70
2018-05-21T03:02:03.055Z,11.80
2018-05-21T03:04:31.480Z,11.80
2018-05-21T03:06:59.783Z,11.80
2018-05-21T03:09:28.343Z,11.80
2018-05-21T03:11:57.434Z,11.90
2018-05-21T03:14:26.733Z,11.80
2018-05-21T03:16:55.749Z,11.80
2018-05-21T03:19:24.888Z,11.80
2018-05-21T03:21:53.253Z,11.80
2018-05-21T03:24:21.820Z,11.70
2018-05-21T03:26:51.041Z,11.50
2018-05-21T03:29:19.482Z,11.20
2018-05-21T03:31:49.060Z,10.90
2018-05-21T03:34:17.439Z,10.90
2018-05-21T03:36:45.471Z,11.00
2018-05-21T03:39:13.904Z,11.10
2018-05-21T03:41:42.183Z,11.30
2018-05-21T03:44:10.439Z,11.40
2018-05-21T03:46:40.151Z,11.50
2018-05-21T03:49:08.581Z,11.50
2018-05-21T03:51:36.777Z,11.60
2018-05-21T03:54:05.145Z,10.70
2018-05-21T03:56:36.848Z,10.50
2018-05-21T03:59:16.483Z,10.50
2018-05-21T04:02:59.640Z,10.70
2018-05-21T04:05:28.481Z,10.60
2018-05-21T04:07:56.729Z,10.60
2018-05-21T04:10:24.909Z,10.60
2018-05-21T04:12:55.069Z,10.70
2018-05-21T04:15:23.504Z,10.70
2018-05-21T04:17:54.047Z,10.80
2018-05-21T04:20:22.883Z,10.90
2018-05-21T04:22:51.296Z,11.00
2018-05-21T04:25:19.577Z,11.10
2018-05-21T04:27:47.711Z,11.10
2018-05-21T04:30:16.043Z,11.10
2018-05-21T04:32:44.523Z,11.20
2018-05-21T04:35:12.844Z,11.30
2018-05-21T04:37:41.387Z,11.30
2018-05-21T04:40:09.862Z,11.20
2018-05-21T04:42:38.366Z,11.20
2018-05-21T04:45:07.357Z,11.40
2018-05-21T04:47:35.877Z,11.40
2018-05-21T04:50:04.917Z,11.50
2018-05-21T04:52:33.300Z,11.60
2018-05-21T04:55:01.850Z,11.70
2018-05-21T04:57:30.143Z,11.80
2018-05-21T04:59:58.626Z,11.80
2018-05-21T05:02:27.206Z,11.90
2018-05-21T05:04:55.583Z,12.00
2018-05-21T05:07:24.296Z,12.10
2018-05-21T05:09:52.634Z,12.10
2018-05-21T05:12:21.057Z,12.20
2018-05-21T05:14:50.835Z,12.40
2018-05-21T05:17:19.196Z,12.50
2018-05-21T05:19:47.475Z,12.80
2018-05-21T05:22:16.555Z,13.10
2018-05-21T05:24:44.863Z,13.10
2018-05-21T05:27:13.071Z,13.40
2018-05-21T05:29:41.253Z,13.70
2018-05-21T05:32:09.466Z,13.90
2018-05-21T05:34:39.090Z,14.00
2018-05-21T05:37:07.673Z,14.20
2018-05-21T05:39:36.491Z,14.30
2018-05-21T05:42:04.871Z,14.50
2018-05-21T05:44:33.404Z,14.70
2018-05-21T05:47:02.051Z,14.80
2018-05-21T05:49:30.591Z,14.80
2018-05-21T05:51:59.256Z,15.00
2018-05-21T05:54:27.905Z,15.10
2018-05-21T05:56:57.956Z,15.20
2018-05-21T05:59:26.264Z,15.20
2018-05-21T06:01:54.915Z,15.30
2018-05-21T06:04:23.088Z,15.30
2018-05-21T06:06:51.790Z,15.40
2018-05-21T06:09:20.255Z,15.50
2018-05-21T06:11:48.379Z,15.60
2018-05-21T06:14:16.810Z,15.70
2018-05-21T06:16:54.687Z,15.80
2018-05-21T06:19:22.803Z,15.90
2018-05-21T06:21:51.331Z,16.00
2018-05-21T06:24:20.151Z,16.10
2018-05-21T06:26:48.491Z,16.20
2018-05-21T06:32:16.825Z,16.40
2018-05-21T06:34:45.077Z,16.50
2018-05-21T06:37:13.795Z,16.70
2018-05-21T06:39:42.990Z,16.90
2018-05-21T06:42:11.252Z,16.90
2018-05-21T06:44:40.321Z,17.40
2018-05-21T06:47:09.251Z,17.70
2018-05-21T06:49:37.420Z,17.70
2018-05-21T06:52:05.896Z,18.30
2018-05-21T06:57:16.977Z,20.20
2018-05-21T06:59:45.102Z,20.90
2018-05-21T07:02:13.310Z,21.50
2018-05-21T07:04:42.035Z,21.80
2018-05-21T07:07:10.711Z,21.40
2018-05-21T07:09:38.782Z,21.80
2018-05-21T07:12:07.697Z,22.30
2018-05-21T07:14:35.961Z,22.10
2018-05-21T07:17:04.397Z,22.50
2018-05-21T07:19:32.691Z,22.60
2018-05-21T07:22:00.814Z,23.30
2018-05-21T07:24:28.971Z,23.00
2018-05-21T07:26:57.353Z,22.90
2018-05-21T07:29:25.633Z,23.50
2018-05-21T07:31:54.487Z,23.30
2018-05-21T07:34:22.910Z,23.20
2018-05-21T07:36:51.199Z,23.10
2018-05-21T07:39:20.720Z,22.80
2018-05-21T07:41:48.992Z,22.90
2018-05-21T07:44:17.917Z,22.70
2018-05-21T07:46:45.961Z,22.70
2018-05-21T07:49:14.547Z,23.00
2018-05-21T07:51:42.708Z,23.50
2018-05-21T07:54:11.229Z,24.00
2018-05-21T07:56:39.725Z,24.50
2018-05-21T07:59:08.307Z,24.10
2018-05-21T08:01:36.786Z,23.80
2018-05-21T08:04:05.786Z,24.00
2018-05-21T08:06:34.366Z,24.00
2018-05-21T08:09:04.332Z,24.30
2018-05-21T08:11:32.589Z,24.20
2018-05-21T08:14:01.926Z,23.10
2018-05-21T08:16:30.184Z,23.10
2018-05-21T08:18:59.928Z,23.40
2018-05-21T08:21:28.391Z,23.10
2018-05-21T08:23:56.538Z,22.70
2018-05-21T08:26:24.612Z,23.50
2018-05-21T08:28:53.066Z,24.30
2018-05-21T08:31:21.881Z,23.70
2018-05-21T08:33:50.049Z,23.80
2018-05-21T08:36:18.945Z,23.90
2018-05-21T08:38:47.362Z,23.90
2018-05-21T08:41:15.591Z,23.70
2018-05-21T08:43:44.534Z,23.40
2018-05-21T08:46:12.702Z,23.20
2018-05-21T08:48:42.132Z,23.70
2018-05-21T08:51:10.433Z,24.30
2018-05-21T08:53:38.742Z,24.10
2018-05-21T08:56:07.445Z,24.60
2018-05-21T08:58:35.734Z,24.20
2018-05-21T09:01:03.989Z,24.50
2018-05-21T09:03:32.234Z,24.10
2018-05-21T09:06:01.686Z,24.30
2018-05-21T09:08:30.597Z,24.30
2018-05-21T09:10:59.317Z,24.00
2018-05-21T09:13:29.697Z,24.10
2018-05-21T09:15:58.182Z,24.20
2018-05-21T09:18:29.511Z,24.00
2018-05-21T09:20:59.315Z,24.80
2018-05-21T09:23:28.237Z,24.40
2018-05-21T09:25:57.630Z,24.20
2018-05-21T09:28:27.482Z,24.20
2018-05-21T09:30:55.689Z,24.10
2018-05-21T09:33:25.313Z,24.20
2018-05-21T09:35:53.479Z,24.10
2018-05-21T09:38:22.065Z,24.10
2018-05-21T09:40:50.431Z,24.00
2018-05-21T09:43:18.532Z,23.50
2018-05-21T09:45:47.415Z,23.70
2018-05-21T09:48:15.663Z,23.10
2018-05-21T09:50:44.663Z,23.00
2018-05-21T09:53:12.796Z,23.00
2018-05-21T09:55:40.812Z,22.50
2018-05-21T09:58:09.070Z,22.70
2018-05-21T10:00:37.290Z,22.60
2018-05-21T10:03:06.095Z,22.80
2018-05-21T10:05:34.900Z,23.00
2018-05-21T10:08:03.201Z,23.00
2018-05-21T10:10:31.434Z,23.30
2018-05-21T10:13:00.169Z,23.10
2018-05-21T10:15:28.301Z,23.00
2018-05-21T10:17:56.499Z,22.90
2018-05-21T10:20:25.114Z,23.20
2018-05-21T10:22:54.171Z,23.50
2018-05-21T10:25:22.377Z,23.70
2018-05-21T10:27:50.754Z,23.20
2018-05-21T10:30:18.851Z,23.00
2018-05-21T10:32:47.746Z,22.50
2018-05-21T10:35:15.954Z,22.50
2018-05-21T10:37:43.985Z,22.40
2018-05-21T10:40:12.694Z,22.60
2018-05-21T10:42:40.722Z,23.00
2018-05-21T10:45:09.489Z,23.50
2018-05-21T10:47:37.654Z,23.70
2018-05-21T10:50:05.802Z,23.50
2018-05-21T10:52:33.833Z,23.20
2018-05-21T10:55:02.039Z,23.30
2018-05-21T10:57:31.073Z,23.80
2018-05-21T10:59:59.167Z,23.80
2018-05-21T11:02:27.443Z,22.80
2018-05-21T11:04:55.504Z,22.90
2018-05-21T11:07:24.060Z,22.80
2018-05-21T11:09:52.420Z,23.10
2018-05-21T11:12:20.453Z,23.30
2018-05-21T11:14:49.591Z,22.90
2018-05-21T11:17:18.326Z,22.90
2018-05-21T11:19:46.457Z,22.80
2018-05-21T11:22:14.586Z,22.70
2018-05-21T11:24:43.546Z,23.20
2018-05-21T11:27:11.681Z,23.30
2018-05-21T11:29:39.869Z,23.30
2018-05-21T11:32:08.739Z,23.00
2018-05-21T11:34:37.141Z,22.90
2018-05-21T11:37:05.202Z,23.20
2018-05-21T11:39:33.381Z,23.20
2018-05-21T11:42:01.737Z,23.10
2018-05-21T11:44:29.997Z,23.10
2018-05-21T11:46:59.365Z,23.30
2018-05-21T11:49:28.808Z,23.30
2018-05-21T11:51:57.755Z,23.20
2018-05-21T11:54:25.906Z,23.20
2018-05-21T11:56:54.366Z,23.30
2018-05-21T11:59:23.468Z,23.20
2018-05-21T12:01:52.092Z,23.50
2018-05-21T12:04:20.641Z,23.60
2018-05-21T12:06:48.976Z,23.10
2018-05-21T12:09:18.181Z,23.50
2018-05-21T12:11:46.680Z,23.90
2018-05-21T12:14:15.866Z,23.70
2018-05-21T12:16:44.646Z,23.70
2018-05-21T12:19:13.864Z,23.90
2018-05-21T12:21:42.401Z,23.90
2018-05-21T12:24:11.288Z,23.90
2018-05-21T12:26:40.028Z,23.90
2018-05-21T12:29:09.360Z,23.80
2018-05-21T12:31:37.920Z,23.90
2018-05-21T12:34:06.288Z,23.90
2018-05-21T12:36:34.432Z,23.70
2018-05-21T12:39:03.623Z,23.50
2018-05-21T12:41:32.794Z,23.50
2018-05-21T12:44:02.489Z,23.50
2018-05-21T12:46:30.806Z,23.50
2018-05-21T12:49:01.597Z,23.60
2018-05-21T12:51:29.870Z,23.60
2018-05-21T12:53:58.017Z,23.80
2018-05-21T12:56:26.092Z,24.00
2018-05-21T12:58:54.726Z,24.00
2018-05-21T13:01:22.790Z,23.70
2018-05-21T13:03:50.890Z,24.00
2018-05-21T13:06:19.985Z,24.10
2018-05-21T13:08:48.711Z,24.10
2018-05-21T13:11:17.074Z,24.10
2018-05-21T13:13:45.222Z,24.30
2018-05-21T13:16:14.694Z,23.80
2018-05-21T13:18:42.894Z,23.80
2018-05-21T13:21:11.281Z,23.90
2018-05-21T13:23:40.605Z,24.30
2018-05-21T13:26:08.902Z,24.20
2018-05-21T13:28:38.209Z,24.50
2018-05-21T13:31:06.922Z,24.50
2018-05-21T13:33:35.075Z,24.30
2018-05-21T13:36:03.346Z,24.40
2018-05-21T13:38:32.126Z,24.10
2018-05-21T13:41:00.310Z,24.00
2018-05-21T13:43:28.816Z,24.00
2018-05-21T13:45:57.271Z,24.30
2018-05-21T13:48:26.337Z,24.10
2018-05-21T13:50:54.857Z,24.40
2018-05-21T13:53:23.585Z,24.70
2018-05-21T13:55:52.505Z,24.90
2018-05-21T13:58:20.787Z,24.90
2018-05-21T14:00:49.575Z,25.00
2018-05-21T14:03:17.858Z,24.80
2018-05-21T14:05:46.790Z,24.90
2018-05-21T14:08:15.237Z,24.60
2018-05-21T14:10:43.495Z,24.60
2018-05-21T14:13:11.848Z,24.50
2018-05-21T14:15:39.986Z,24.40
2018-05-21T14:18:08.943Z,24.40
2018-05-21T14:20:37.800Z,24.30
2018-05-21T14:23:06.687Z,24.70
2018-05-21T14:25:34.912Z,24.70
2018-05-21T14:28:03.239Z,24.70
2018-05-21T14:30:33.401Z,24.60
2018-05-21T14:33:01.819Z,24.60
2018-05-21T14:35:30.662Z,24.80
2018-05-21T14:37:58.850Z,24.80
2018-05-21T14:40:26.998Z,24.80
2018-05-21T14:42:55.406Z,24.80
2018-05-21T14:45:23.874Z,24.90
2018-05-21T14:47:52.518Z,24.80
2018-05-21T14:50:20.837Z,24.70
2018-05-21T14:52:49.055Z,24.70
2018-05-21T14:55:18.133Z,24.90
2018-05-21T14:57:47.192Z,25.00
2018-05-21T15:00:15.394Z,25.00
2018-05-21T15:02:43.740Z,24.90
2018-05-21T15:05:12.162Z,24.80
2018-05-21T15:07:41.147Z,25.00
2018-05-21T15:10:10.147Z,24.90
2018-05-21T15:12:39.573Z,24.90
2018-05-21T15:15:07.990Z,25.00
2018-05-21T15:17:36.185Z,24.60
2018-05-21T15:20:04.434Z,24.70
2018-05-21T15:22:32.963Z,24.90
2018-05-21T15:25:02.007Z,24.40
2018-05-21T15:27:30.413Z,24.40
2018-05-21T15:29:58.604Z,24.40
2018-05-21T15:32:28.334Z,24.50
2018-05-21T15:34:57.261Z,24.70
2018-05-21T15:37:25.546Z,24.70
2018-05-21T15:39:53.782Z,24.60
2018-05-21T15:42:21.845Z,24.80
2018-05-21T15:44:51.081Z,25.00
2018-05-21T15:47:19.202Z,24.90
2018-05-21T15:49:47.495Z,24.90
2018-05-21T15:52:15.765Z,24.70
2018-05-21T15:54:44.243Z,24.80
2018-05-21T15:57:12.331Z,24.90
2018-05-21T15:59:40.609Z,25.10
2018-05-21T16:02:08.774Z,25.20
2018-05-21T16:04:36.938Z,24.90
2018-05-21T16:07:05.403Z,24.80
2018-05-21T16:09:34.358Z,24.70
2018-05-21T16:12:02.461Z,24.70
2018-05-21T16:14:31.459Z,24.40
2018-05-21T16:17:01.260Z,24.10
2018-05-21T16:19:29.392Z,24.10
2018-05-21T16:21:57.685Z,23.90
2018-05-21T16:27:00.505Z,24.10
2018-05-21T16:29:29.889Z,24.20
2018-05-21T16:31:58.118Z,24.20
2018-05-21T16:34:26.524Z,24.20
2018-05-21T16:36:54.913Z,24.30
2018-05-21T16:39:23.144Z,24.40
2018-05-21T16:41:51.469Z,24.30
2018-05-21T16:44:19.774Z,24.10
2018-05-21T16:46:49.045Z,24.10
2018-05-21T16:49:17.268Z,24.00
2018-05-21T16:51:45.548Z,24.00
2018-05-21T16:54:13.733Z,24.00
2018-05-21T16:56:42.112Z,24.10
2018-05-21T16:59:11.585Z,24.20
2018-05-21T17:01:40.507Z,23.70
2018-05-21T17:04:08.975Z,23.70
2018-05-21T17:06:37.645Z,23.60
2018-05-21T17:09:06.980Z,23.50
2018-05-21T17:11:35.142Z,23.50
2018-05-21T17:14:03.370Z,23.60
2018-05-21T17:16:31.434Z,23.40
2018-05-21T17:18:59.494Z,23.20
2018-05-21T17:21:27.633Z,23.40
2018-05-21T17:23:55.993Z,23.20
2018-05-21T17:26:24.764Z,23.20
2018-05-21T17:28:53.855Z,23.00
2018-05-21T17:31:22.756Z,22.90
2018-05-21T17:33:52.066Z,23.00
2018-05-21T17:36:21.219Z,23.00
2018-05-21T17:38:49.376Z,22.90
2018-05-21T17:41:17.554Z,22.90
2018-05-21T17:43:45.753Z,22.80
2018-05-21T17:46:13.863Z,22.60
2018-05-21T17:48:42.242Z,22.50
2018-05-21T17:51:10.487Z,22.50
2018-05-21T17:53:39.031Z,22.50
2018-05-21T17:56:07.134Z,22.40
2018-05-21T17:58:35.269Z,22.30
2018-05-21T18:01:03.501Z,22.20
2018-05-21T18:03:32.369Z,22.10
2018-05-21T18:06:00.510Z,22.00
2018-05-21T18:08:28.747Z,22.10
2018-05-21T18:10:56.857Z,22.00
2018-05-21T18:13:25.414Z,21.90
2018-05-21T18:15:53.774Z,21.90
2018-05-21T18:18:22.225Z,21.80
2018-05-21T18:20:50.369Z,21.60
2018-05-21T18:23:18.625Z,21.50
2018-05-21T18:25:46.833Z,21.50
2018-05-21T18:28:15.100Z,21.40
2018-05-21T18:30:43.217Z,21.30
2018-05-21T18:33:11.378Z,21.10
2018-05-21T18:35:40.258Z,20.90
2018-05-21T18:38:09.531Z,20.90
2018-05-21T18:40:38.845Z,20.90
2018-05-21T18:43:07.052Z,20.90
2018-05-21T18:45:35.232Z,20.80
2018-05-21T18:48:03.719Z,20.70
2018-05-21T18:50:32.495Z,20.60
2018-05-21T18:53:00.911Z,20.60
2018-05-21T18:55:29.184Z,20.50
2018-05-21T18:57:57.682Z,20.50
2018-05-21T19:00:27.207Z,20.40
2018-05-21T19:02:55.463Z,20.30
2018-05-21T19:05:23.620Z,20.20
2018-05-21T19:07:51.758Z,20.10
2018-05-21T19:10:19.831Z,20.00
2018-05-21T19:12:49.318Z,19.80
2018-05-21T19:15:18.707Z,19.70
2018-05-21T19:17:46.991Z,19.70
2018-05-21T19:20:15.245Z,19.70
2018-05-21T19:22:43.560Z,19.60
2018-05-21T19:25:11.947Z,19.50
2018-05-21T19:27:40.070Z,19.50
2018-05-21T19:30:08.458Z,19.40
2018-05-21T19:32:36.703Z,19.40
2018-05-21T19:35:05.245Z,19.40
2018-05-21T19:37:33.376Z,19.30
2018-05-21T19:40:02.449Z,19.20
2018-05-21T19:42:30.786Z,19.20
2018-05-21T19:44:59.276Z,19.10
2018-05-21T19:47:27.506Z,19.00
2018-05-21T19:49:55.776Z,19.00
2018-05-21T19:52:24.254Z,19.00
2018-05-21T19:54:53.282Z,18.90
2018-05-21T19:57:22.327Z,18.90
2018-05-21T19:59:52.350Z,18.80
2018-05-21T20:02:20.769Z,18.80
2018-05-21T20:04:49.671Z,18.70
2018-05-21T20:07:19.590Z,18.70
2018-05-21T20:09:48.258Z,18.60
2018-05-21T20:12:16.503Z,18.70
2018-05-21T20:14:45.727Z,18.70
2018-05-21T20:17:14.711Z,18.50
2018-05-21T20:19:43.054Z,18.50
2018-05-21T20:22:11.396Z,18.50
2018-05-21T20:24:39.782Z,18.40
2018-05-21T20:27:08.848Z,18.30
2018-05-21T20:29:37.741Z,18.30
2018-05-21T20:32:05.972Z,18.30
2018-05-21T20:34:34.249Z,18.30
2018-05-21T20:37:02.597Z,18.30
2018-05-21T20:39:31.036Z,18.20
2018-05-21T20:41:59.218Z,18.20
2018-05-21T20:44:28.433Z,18.10
2018-05-21T20:46:57.832Z,18.10
2018-05-21T20:49:26.391Z,18.00
2018-05-21T20:51:55.150Z,18.10
2018-05-21T20:54:24.134Z,18.00
2018-05-21T20:56:52.454Z,18.00
2018-05-21T20:59:21.054Z,17.90
2018-05-21T21:01:49.781Z,17.90
2018-05-21T21:04:18.263Z,17.90
2018-05-21T21:06:46.788Z,17.90
2018-05-21T21:09:15.907Z,17.90
2018-05-21T21:11:44.822Z,17.90
2018-05-21T21:14:12.985Z,17.90
2018-05-21T21:16:41.122Z,17.90
2018-05-21T21:19:09.958Z,17.90
2018-05-21T21:21:38.218Z,17.80
2018-05-21T21:24:06.721Z,17.80
2018-05-21T21:26:35.019Z,17.90
2018-05-21T21:29:03.506Z,17.80
2018-05-21T21:31:31.832Z,17.90
2018-05-21T21:34:00.156Z,17.90
2018-05-21T21:36:28.503Z,17.90
2018-05-21T21:38:56.584Z,17.90
2018-05-21T21:41:25.056Z,17.90
2018-05-21T21:43:54.686Z,17.80
2018-05-21T21:46:24.099Z,17.80
2018-05-21T21:48:52.320Z,17.80
2018-05-21T21:51:20.963Z,17.80
2018-05-21T21:53:49.031Z,17.70
2018-05-21T21:56:17.371Z,17.60
2018-05-21T21:58:45.678Z,17.60
2018-05-21T22:01:14.893Z,17.60
2018-05-21T22:03:42.996Z,17.50
2018-05-21T22:06:12.064Z,17.40
2018-05-21T22:08:41.315Z,17.40
2018-05-21T22:11:09.565Z,17.40
2018-05-21T22:13:38.017Z,17.40
2018-05-21T22:16:06.588Z,17.30
2018-05-21T22:18:35.010Z,17.30
2018-05-21T22:21:04.268Z,17.30
2018-05-21T22:23:33.020Z,17.20
2018-05-21T22:26:02.428Z,17.20
2018-05-21T22:28:31.210Z,17.10
2018-05-21T22:30:59.402Z,17.10
2018-05-21T22:33:27.497Z,17.00
2018-05-21T22:35:56.318Z,17.00
2018-05-21T22:38:24.491Z,17.00
2018-05-21T22:40:53.170Z,16.90
2018-05-21T22:43:21.912Z,16.90
2018-05-21T22:45:50.112Z,16.90
2018-05-21T22:48:18.695Z,16.80
2018-05-21T22:50:47.101Z,16.80
2018-05-21T22:53:16.693Z,16.70
2018-05-21T22:55:45.907Z,16.70
2018-05-21T22:58:14.946Z,16.70
2018-05-21T23:00:43.119Z,16.60
2018-05-21T23:03:11.341Z,16.60
2018-05-21T23:05:40.172Z,16.60
2018-05-21T23:08:08.427Z,16.60
2018-05-21T23:10:36.767Z,16.50
2018-05-21T23:13:04.977Z,16.50
2018-05-21T23:15:33.375Z,16.60
2018-05-21T23:18:02.082Z,16.50
2018-05-21T23:20:31.320Z,16.50
2018-05-21T23:22:59.859Z,16.50
2018-05-21T23:25:28.608Z,16.60
2018-05-21T23:27:57.124Z,16.60
2018-05-21T23:30:25.983Z,16.50
2018-05-21T23:32:54.617Z,16.30
2018-05-21T23:35:23.999Z,15.90
2018-05-21T23:37:53.102Z,15.90
2018-05-21T23:40:21.680Z,15.90
2018-05-21T23:42:50.446Z,16.00
2018-05-21T23:45:18.660Z,15.90
2018-05-21T23:47:48.461Z,15.90
2018-05-21T23:50:16.785Z,15.90
2018-05-21T23:52:44.972Z,15.90
2018-05-21T23:55:13.390Z,15.90
2018-05-21T23:57:42.373Z,15.30
